Time;durP1;ratioP1;P1;durP2;ratioP2;P2;SDS_P1;SDS_P2;PMS_P1;PMS_P2;Temp;Humidity;BMP_temperature;BMP_pressure;BME280_temperature;BME280_humidity;BME280_pressure;Samples;Min_cycle;Max_cycle;Signal;HPM_P1;HPM_P2
2023/09/22 00:02:25;;;;;;;10.73;7.43;;;;;;;11.73;100.00;99697.28;5023069;28;20025;-68
2023/09/22 00:04:51;;;;;;;9.00;7.68;;;;;;;11.69;100.00;99686.00;5025841;28;20026;-68
2023/09/22 00:07:17;;;;;;;10.93;8.52;;;;;;;11.69;100.00;99687.81;5004562;28;20470;-68
2023/09/22 00:09:43;;;;;;;8.45;7.55;;;;;;;11.62;100.00;99683.88;5021880;28;20602;-68
2023/09/22 00:12:08;;;;;;;10.35;8.23;;;;;;;11.57;100.00;99689.56;5026299;28;20032;-68
2023/09/22 00:14:35;;;;;;;10.75;8.75;;;;;;;11.50;100.00;99690.16;5026128;28;20511;-68
2023/09/22 00:17:00;;;;;;;10.57;8.68;;;;;;;11.45;100.00;99698.44;5025678;28;20022;-68
2023/09/22 00:19:26;;;;;;;10.95;9.27;;;;;;;11.42;100.00;99688.88;5026389;28;20037;-69
2023/09/22 00:21:51;;;;;;;10.45;8.52;;;;;;;11.37;100.00;99687.50;5025480;28;20029;-70
2023/09/22 00:24:16;;;;;;;10.88;9.18;;;;;;;11.34;100.00;99685.06;5026047;28;20049;-68
2023/09/22 00:26:42;;;;;;;13.00;9.63;;;;;;;11.32;100.00;99684.31;5026333;28;20022;-69
2023/09/22 00:29:07;;;;;;;13.70;10.15;;;;;;;11.32;100.00;99684.31;5025833;28;20102;-69
2023/09/22 00:31:32;;;;;;;13.98;10.65;;;;;;;11.26;100.00;99688.28;5025865;28;20025;-69
2023/09/22 00:33:58;;;;;;;13.13;10.02;;;;;;;11.23;100.00;99691.16;5025784;28;20029;-70
2023/09/22 00:36:25;;;;;;;14.02;10.98;;;;;;;11.25;100.00;99704.38;5025474;28;20037;-69
2023/09/22 00:38:51;;;;;;;14.35;10.38;;;;;;;11.17;100.00;99699.59;5025612;28;20057;-69
2023/09/22 00:41:16;;;;;;;13.48;10.77;;;;;;;11.16;100.00;99698.75;5025631;28;20177;-69
2023/09/22 00:43:41;;;;;;;14.07;11.18;;;;;;;11.14;100.00;99697.16;5026249;28;20202;-69
2023/09/22 00:46:07;;;;;;;16.05;11.90;;;;;;;11.14;100.00;99689.16;5025430;28;20216;-68
2023/09/22 00:48:34;;;;;;;16.52;12.35;;;;;;;11.12;100.00;99685.75;5025272;28;20357;-69
2023/09/22 00:51:01;;;;;;;15.52;11.95;;;;;;;11.09;100.00;99685.97;5024587;28;20045;-70
2023/09/22 00:53:29;;;;;;;15.48;11.90;;;;;;;11.10;100.00;99685.00;5025067;28;20025;-69
2023/09/22 00:55:55;;;;;;;14.90;10.57;;;;;;;11.04;100.00;99669.50;5025413;28;20029;-69
2023/09/22 00:58:21;;;;;;;16.08;11.32;;;;;;;11.05;100.00;99685.34;5024944;28;20538;-69
2023/09/22 01:00:52;;;;;;;15.38;11.90;;;;;;;11.02;100.00;99688.22;5024857;28;20067;-69
2023/09/22 01:03:18;;;;;;;16.88;12.35;;;;;;;11.04;100.00;99691.63;5025413;28;20028;-69
2023/09/22 01:05:43;;;;;;;15.32;11.18;;;;;;;11.03;100.00;99694.38;5025595;28;20399;-69
2023/09/22 01:08:09;;;;;;;17.95;12.38;;;;;;;11.03;100.00;99697.91;5010705;28;20068;-69
2023/09/22 01:10:38;;;;;;;16.70;12.07;;;;;;;11.04;100.00;99691.63;5025078;28;20397;-69
2023/09/22 01:13:05;;;;;;;17.88;12.05;;;;;;;11.01;100.00;99693.66;5025299;28;20037;-69
2023/09/22 01:15:35;;;;;;;17.73;11.80;;;;;;;11.02;100.00;99704.19;4994045;28;20345;-68
2023/09/22 01:18:01;;;;;;;15.88;12.32;;;;;;;11.01;100.00;99691.84;5025378;28;20033;-69
2023/09/22 01:20:26;;;;;;;18.48;12.32;;;;;;;10.97;100.00;99695.69;5024739;28;20029;-70
2023/09/22 01:22:52;;;;;;;17.55;12.23;;;;;;;10.93;100.00;99694.19;5025325;28;20096;-69
2023/09/22 01:25:17;;;;;;;19.08;12.10;;;;;;;10.92;100.00;99687.19;5023983;28;20431;-69
2023/09/22 01:27:42;;;;;;;16.75;12.20;;;;;;;10.92;100.00;99682.72;5024583;28;20029;-68
2023/09/22 01:30:09;;;;;;;18.10;12.52;;;;;;;10.93;100.00;99676.41;5023937;28;20400;-69
2023/09/22 01:32:37;;;;;;;18.83;12.52;;;;;;;10.88;100.00;99664.41;5023922;28;20462;-68
2023/09/22 01:35:04;;;;;;;18.42;12.80;;;;;;;10.88;100.00;99675.03;5022587;28;20049;-69
2023/09/22 01:37:34;;;;;;;18.17;12.02;;;;;;;10.88;100.00;99683.88;5022948;28;20088;-68
2023/09/22 01:40:00;;;;;;;19.08;13.15;;;;;;;10.89;100.00;99674.94;5022988;28;20069;-68
2023/09/22 01:42:26;;;;;;;19.00;13.30;;;;;;;10.89;100.00;99682.91;5023578;28;20100;-69
2023/09/22 01:44:51;;;;;;;20.92;13.35;;;;;;;10.89;100.00;99682.91;5022938;28;20025;-69
2023/09/22 01:47:17;;;;;;;17.88;13.30;;;;;;;10.88;100.00;99675.03;5022846;28;20057;-70
2023/09/22 01:49:42;;;;;;;20.52;14.00;;;;;;;10.97;100.00;99691.22;5022560;28;20040;-69
2023/09/22 01:52:08;;;;;;;18.08;13.75;;;;;;;10.99;100.00;99699.06;5022456;28;20061;-69
2023/09/22 01:54:33;;;;;;;19.45;14.07;;;;;;;11.02;100.00;99698.03;5022422;28;20030;-69
2023/09/22 01:56:59;;;;;;;20.50;14.60;;;;;;;11.07;100.00;99702.06;5022466;28;20021;-69
2023/09/22 01:59:24;;;;;;;21.42;14.27;;;;;;;11.04;100.00;99699.63;5022891;28;20041;-69
2023/09/22 02:01:49;;;;;;;20.77;14.63;;;;;;;11.01;100.00;99691.84;5022519;28;20107;-69
2023/09/22 02:04:15;;;;;;;19.00;12.95;;;;;;;10.97;100.00;99687.69;5022892;28;20043;-70
2023/09/22 02:06:41;;;;;;;18.27;13.32;;;;;;;10.90;100.00;99679.28;5022237;28;20032;-69
2023/09/22 02:09:06;;;;;;;18.80;13.90;;;;;;;10.90;100.00;99676.63;5022658;28;20037;-69
2023/09/22 02:11:32;;;;;;;18.10;13.00;;;;;;;10.90;100.00;99679.28;5021244;28;20389;-68
2023/09/22 02:13:57;;;;;;;16.83;12.70;;;;;;;10.91;100.00;99683.66;5022179;28;20507;-69
2023/09/22 02:16:22;;;;;;;16.90;12.50;;;;;;;10.89;100.00;99682.06;4996805;28;20029;-68
2023/09/22 02:18:48;;;;;;;19.38;13.18;;;;;;;10.78;100.00;99677.47;5017015;28;20045;-69
2023/09/22 02:21:14;;;;;;;21.20;13.30;;;;;;;10.87;100.00;99684.84;5023237;28;20108;-69
2023/09/22 02:23:39;;;;;;;19.08;13.57;;;;;;;10.86;100.00;99693.78;4982336;28;1165902;-69
2023/09/22 02:26:08;;;;;;;19.42;13.20;;;;;;;10.81;100.00;99695.91;5013346;28;20036;-69
2023/09/22 02:28:34;;;;;;;20.33;13.60;;;;;;;10.81;100.00;99679.94;5019456;28;20091;-69
2023/09/22 02:30:59;;;;;;;20.88;13.52;;;;;;;10.92;100.00;99685.38;5023737;28;20026;-69
2023/09/22 02:33:25;;;;;;;19.48;13.27;;;;;;;10.90;100.00;99679.28;5023127;28;20415;-69
2023/09/22 02:35:51;;;;;;;18.92;13.63;;;;;;;10.98;100.00;99682.25;5023583;28;20029;-68
2023/09/22 02:38:19;;;;;;;20.33;12.98;;;;;;;11.01;100.00;99665.22;5024027;28;20021;-68
2023/09/22 02:40:45;;;;;;;16.75;13.02;;;;;;;11.07;100.00;99679.91;5023944;28;20092;-69
2023/09/22 02:43:10;;;;;;;16.50;12.65;;;;;;;11.11;100.00;99676.91;5023445;28;20163;-68
2023/09/22 02:45:40;;;;;;;18.08;12.80;;;;;;;11.06;100.00;99670.22;4995083;28;20496;-68
2023/09/22 02:48:06;;;;;;;16.83;12.20;;;;;;;11.11;100.00;99676.91;5020843;28;20033;-68
2023/09/22 02:50:33;;;;;;;15.27;11.85;;;;;;;11.17;100.00;99673.81;5023826;28;20033;-68
2023/09/22 02:52:58;;;;;;;16.35;11.70;;;;;;;11.19;100.00;99682.53;5023649;28;20025;-68
2023/09/22 02:55:23;;;;;;;14.02;10.38;;;;;;;11.20;100.00;99688.72;5022895;28;20435;-68
2023/09/22 02:57:50;;;;;;;12.95;11.10;;;;;;;11.19;100.00;99684.34;5023156;28;20041;-69
2023/09/22 03:00:18;;;;;;;15.52;10.90;;;;;;;11.16;100.00;99684.56;5023524;28;20018;-68
2023/09/22 03:02:44;;;;;;;17.55;11.88;;;;;;;11.19;100.00;99682.53;5023241;28;20033;-69
2023/09/22 03:05:10;;;;;;;14.27;11.23;;;;;;;11.16;100.00;99682.78;5022862;28;20028;-69
2023/09/22 03:07:35;;;;;;;14.82;10.85;;;;;;;11.18;100.00;99683.50;5022614;28;20056;-69
2023/09/22 03:10:01;;;;;;;12.75;10.45;;;;;;;11.21;100.00;99687.78;5005178;28;20091;-69
2023/09/22 03:12:26;;;;;;;14.45;10.35;;;;;;;11.22;100.00;99689.47;5022752;28;20555;-69
2023/09/22 03:14:52;;;;;;;12.70;10.35;;;;;;;11.18;100.00;99687.97;5012626;28;20026;-69
2023/09/22 03:17:18;;;;;;;13.63;10.93;;;;;;;11.18;100.00;99687.97;5018044;28;20406;-69
2023/09/22 03:19:43;;;;;;;12.95;10.38;;;;;;;11.18;100.00;99691.50;5023113;28;20022;-69
2023/09/22 03:22:08;;;;;;;12.77;10.20;;;;;;;11.17;100.00;99691.63;5022602;28;20021;-70
2023/09/22 03:24:35;;;;;;;14.20;10.15;;;;;;;11.20;100.00;99692.25;5022736;28;20443;-69
2023/09/22 03:27:01;;;;;;;16.88;11.48;;;;;;;11.25;100.00;99694.59;5022539;28;20022;-68
2023/09/22 03:29:26;;;;;;;14.70;10.10;;;;;;;11.23;100.00;99696.50;4995266;28;20032;-69
2023/09/22 03:31:52;;;;;;;16.70;10.73;;;;;;;11.27;100.00;99697.13;5018332;28;20235;-68
2023/09/22 03:34:21;;;;;;;13.13;10.15;;;;;;;11.26;100.00;99693.63;5023358;28;20049;-68
2023/09/22 03:36:49;;;;;;;13.65;10.32;;;;;;;11.23;100.00;99693.81;5022374;28;20032;-68
2023/09/22 03:39:14;;;;;;;15.43;10.35;;;;;;;11.24;100.00;99703.50;5022615;28;20021;-68
2023/09/22 03:41:42;;;;;;;12.10;10.25;;;;;;;11.23;100.00;99696.50;5022652;28;20039;-68
2023/09/22 03:44:07;;;;;;;12.88;9.82;;;;;;;11.20;100.00;99707.34;5022464;28;20040;-69
2023/09/22 03:46:32;;;;;;;13.23;9.80;;;;;;;11.23;100.00;99712.47;5022602;28;20030;-69
2023/09/22 03:48:58;;;;;;;13.40;9.27;;;;;;;11.22;100.00;99706.28;5022470;28;20029;-69
2023/09/22 03:51:23;;;;;;;12.30;9.57;;;;;;;11.24;100.00;99708.84;5022855;28;20450;-69
2023/09/22 03:53:49;;;;;;;13.68;9.32;;;;;;;11.24;100.00;99698.19;5022489;28;20145;-69
2023/09/22 03:56:14;;;;;;;12.25;8.80;;;;;;;11.23;100.00;99692.00;5022722;28;20113;-69
2023/09/22 03:58:40;;;;;;;10.77;8.30;;;;;;;11.28;100.00;99709.47;5021496;28;20039;-69
2023/09/22 04:01:06;;;;;;;9.77;8.07;;;;;;;11.30;100.00;99707.56;5021929;28;20502;-69
2023/09/22 04:03:31;;;;;;;10.30;8.20;;;;;;;11.34;100.00;99704.56;5021429;28;20029;-69
2023/09/22 04:05:58;;;;;;;9.30;7.20;;;;;;;11.31;100.00;99710.09;5021599;28;20476;-69
2023/09/22 04:08:24;;;;;;;10.30;7.50;;;;;;;11.33;100.00;99708.19;5021202;28;20030;-69
2023/09/22 04:10:49;;;;;;;11.07;7.35;;;;;;;11.31;100.00;99707.44;5021316;28;20032;-69
2023/09/22 04:13:15;;;;;;;9.38;7.00;;;;;;;11.31;100.00;99707.44;5021964;28;20034;-69
2023/09/22 04:15:40;;;;;;;7.93;6.68;;;;;;;11.32;100.00;99700.31;5021262;28;20104;-68
2023/09/22 04:18:06;;;;;;;8.10;6.60;;;;;;;11.29;100.00;99701.38;5021948;28;20116;-68
2023/09/22 04:20:35;;;;;;;10.30;6.88;;;;;;;11.35;100.00;99716.91;5022168;28;20025;-70
2023/09/22 04:23:04;;;;;;;7.47;6.10;;;;;;;11.36;100.00;99715.09;5022363;28;20029;-69
2023/09/22 04:25:33;;;;;;;10.35;5.75;;;;;;;11.33;100.00;99716.19;5022096;28;20052;-69
2023/09/22 04:28:09;;;;;;;10.07;5.55;;;;;;;11.30;100.00;99724.41;5021837;28;20049;-69
2023/09/22 04:30:39;;;;;;;6.95;5.43;;;;;;;11.28;100.00;99723.63;5022499;28;20053;-69
2023/09/22 04:33:05;;;;;;;6.25;5.28;;;;;;;11.22;100.00;99724.94;5022139;28;20045;-69
2023/09/22 04:35:32;;;;;;;8.73;6.03;;;;;;;11.16;100.00;99721.84;5022699;28;20031;-69
2023/09/22 04:38:01;;;;;;;8.85;5.80;;;;;;;11.12;100.00;99723.03;5022413;28;20026;-69
2023/09/22 04:40:34;;;;;;;6.95;5.18;;;;;;;11.04;100.00;99720.94;5022359;28;20022;-69
2023/09/22 04:43:00;;;;;;;6.03;5.03;;;;;;;11.03;100.00;99721.03;5007399;28;20038;-68
2023/09/22 04:45:25;;;;;;;6.75;5.25;;;;;;;10.96;100.00;99721.47;5022505;28;20391;-69
2023/09/22 04:47:52;;;;;;;8.55;5.07;;;;;;;10.91;100.00;99720.94;5022019;28;20479;-68
2023/09/22 04:50:17;;;;;;;9.40;5.20;;;;;;;10.87;100.00;99719.47;5025597;28;20430;-69
2023/09/22 04:52:46;;;;;;;7.20;5.00;;;;;;;10.82;100.00;99718.91;5025649;28;20033;-68
2023/09/22 04:55:12;;;;;;;6.50;5.28;;;;;;;10.81;100.00;99719.00;4994687;28;20500;-69
2023/09/22 04:57:38;;;;;;;8.30;5.30;;;;;;;10.76;100.00;99722.00;5025243;28;20025;-68
2023/09/22 05:00:15;;;;;;;6.93;5.20;;;;;;;10.76;100.00;99724.66;5025168;28;20057;-68
2023/09/22 05:02:41;;;;;;;5.50;5.00;;;;;;;10.72;100.00;99724.03;5025875;28;20064;-67
2023/09/22 05:05:07;;;;;;;8.05;5.63;;;;;;;10.67;100.00;99722.66;5025446;28;20018;-69
2023/09/22 05:07:33;;;;;;;8.15;5.28;;;;;;;10.69;100.00;99720.72;5025397;28;20041;-69
2023/09/22 05:09:59;;;;;;;6.00;5.00;;;;;;;10.67;100.00;99723.50;5025468;28;20508;-69
2023/09/22 05:12:25;;;;;;;9.23;5.57;;;;;;;10.66;100.00;99729.78;5024450;28;20079;-69
2023/09/22 05:14:50;;;;;;;10.63;5.43;;;;;;;10.61;100.00;99736.34;5024799;28;20407;-69
2023/09/22 05:17:16;;;;;;;6.70;5.82;;;;;;;10.61;100.00;99733.69;5025331;28;20025;-68
2023/09/22 05:19:42;;;;;;;9.10;6.43;;;;;;;10.60;100.00;99746.16;5024527;28;20037;-71
2023/09/22 05:22:08;;;;;;;7.25;5.75;;;;;;;10.58;100.00;99747.22;5024660;28;20087;-73
2023/09/22 05:24:33;;;;;;;8.95;5.78;;;;;;;10.54;100.00;99745.75;5024375;28;20057;-69
2023/09/22 05:26:59;;;;;;;8.82;5.43;;;;;;;10.55;100.00;99747.44;5024145;28;20602;-70
2023/09/22 05:29:24;;;;;;;7.32;5.57;;;;;;;10.54;100.00;99751.91;5024738;28;20053;-70
2023/09/22 05:31:53;;;;;;;7.40;4.82;;;;;;;10.52;100.00;99759.13;5024646;28;20030;-69
2023/09/22 05:34:19;;;;;;;8.85;5.40;;;;;;;10.50;100.00;99771.69;5025389;28;20022;-68
2023/09/22 05:36:44;;;;;;;8.18;5.30;;;;;;;10.45;100.00;99764.03;5024767;28;20019;-69
2023/09/22 05:39:10;;;;;;;9.60;5.30;;;;;;;10.48;100.00;99777.09;5024766;28;20088;-68
2023/09/22 05:41:36;;;;;;;7.72;5.55;;;;;;;10.54;100.00;99785.66;5023763;28;20180;-68
2023/09/22 05:44:02;;;;;;;9.50;5.53;;;;;;;10.52;100.00;99776.91;5024372;28;20071;-68
2023/09/22 05:46:27;;;;;;;7.55;5.22;;;;;;;10.55;100.00;99779.34;5024493;28;20144;-68
2023/09/22 05:48:57;;;;;;;7.20;5.47;;;;;;;10.53;100.00;99770.63;5024560;28;20029;-69
2023/09/22 05:51:22;;;;;;;9.38;6.63;;;;;;;10.53;100.00;99781.25;5024268;28;20031;-67
2023/09/22 05:53:51;;;;;;;8.30;5.85;;;;;;;10.53;100.00;99776.78;5024544;28;20022;-68
2023/09/22 05:56:16;;;;;;;7.82;5.65;;;;;;;10.52;100.00;99777.75;5024581;28;20025;-68
2023/09/22 05:58:42;;;;;;;6.43;5.53;;;;;;;10.54;100.00;99777.66;5023886;28;20386;-68
2023/09/22 06:01:09;;;;;;;8.57;5.45;;;;;;;10.55;100.00;99782.03;5023096;28;20036;-69
2023/09/22 06:03:37;;;;;;;6.97;5.65;;;;;;;10.57;100.00;99788.91;5023841;28;20025;-68
2023/09/22 06:06:12;;;;;;;6.20;5.60;;;;;;;10.61;100.00;99789.56;5023719;28;20585;-68
2023/09/22 06:08:43;;;;;;;8.27;5.40;;;;;;;10.61;100.00;99793.09;5023746;28;20033;-68
2023/09/22 06:11:10;;;;;;;8.15;5.50;;;;;;;10.60;100.00;99795.84;5023644;28;20037;-68
2023/09/22 06:13:36;;;;;;;7.10;5.35;;;;;;;10.64;100.00;99806.19;5024056;28;20021;-68
2023/09/22 06:16:02;;;;;;;5.95;4.20;;;;;;;10.64;100.00;99800.03;5023969;28;20029;-68
2023/09/22 06:18:28;;;;;;;6.68;4.45;;;;;;;10.62;100.00;99807.25;5024111;28;20359;-68
2023/09/22 06:21:04;;;;;;;5.35;4.22;;;;;;;10.76;100.00;99815.16;5023844;28;20025;-68
2023/09/22 06:23:29;;;;;;;7.07;3.70;;;;;;;10.80;100.00;99816.66;5024033;28;20061;-67
2023/09/22 06:26:01;;;;;;;6.70;4.00;;;;;;;11.01;100.00;99818.81;5023910;28;20509;-68
2023/09/22 06:28:26;;;;;;;7.15;4.03;;;;;;;11.19;100.00;99814.84;5023787;28;20029;-68
2023/09/22 06:30:52;;;;;;;4.85;3.55;;;;;;;11.42;100.00;99822.09;5024056;28;20476;-68
2023/09/22 06:33:18;;;;;;;7.13;3.17;;;;;;;11.60;100.00;99811.09;5023686;28;20045;-68
2023/09/22 06:35:54;;;;;;;4.60;3.10;;;;;;;11.78;100.00;99831.09;5005762;28;20388;-68
2023/09/22 06:38:19;;;;;;;5.55;2.88;;;;;;;12.06;100.00;99821.13;5023512;28;20389;-68
2023/09/22 06:40:45;;;;;;;5.95;3.13;;;;;;;12.25;100.00;99818.81;5023685;28;20033;-68
2023/09/22 06:43:11;;;;;;;7.22;2.90;;;;;;;12.52;100.00;99831.91;5005056;28;20349;-68
2023/09/22 06:45:37;;;;;;;3.08;2.30;;;;;;;12.76;100.00;99831.88;5002336;28;20415;-68
2023/09/22 06:48:05;;;;;;;4.18;2.22;;;;;;;12.99;100.00;99834.59;5020951;28;20306;-68
2023/09/22 06:50:34;;;;;;;3.00;2.28;;;;;;;13.14;100.00;99833.44;5023016;28;20025;-68
2023/09/22 06:52:59;;;;;;;4.95;2.55;;;;;;;13.30;100.00;99836.66;5023029;28;20486;-68
2023/09/22 06:55:25;;;;;;;5.00;2.30;;;;;;;13.53;100.00;99847.34;5023285;28;20140;-68
2023/09/22 06:57:55;;;;;;;3.60;2.58;;;;;;;13.64;100.00;99842.00;5023545;28;20094;-68
2023/09/22 07:00:28;;;;;;;3.47;2.65;;;;;;;13.80;100.00;99846.97;5023493;28;20063;-68
2023/09/22 07:02:54;;;;;;;3.85;2.13;;;;;;;13.99;100.00;99849.00;5023359;28;20029;-69
2023/09/22 07:05:19;;;;;;;3.65;1.90;;;;;;;14.08;100.00;99851.78;5023813;28;20036;-68
2023/09/22 07:07:45;;;;;;;2.85;1.80;;;;;;;14.12;100.00;99844.38;5022597;28;20522;-68
2023/09/22 07:10:10;;;;;;;2.22;1.65;;;;;;;14.03;100.00;99847.78;5022609;28;20025;-69
2023/09/22 07:12:42;;;;;;;4.32;2.00;;;;;;;13.81;100.00;99854.03;5023030;28;20021;-68
2023/09/22 07:15:08;;;;;;;3.03;1.63;;;;;;;13.47;100.00;99851.34;5023366;28;20059;-68
2023/09/22 07:17:34;;;;;;;2.45;1.55;;;;;;;13.23;100.00;99851.44;5023144;28;20037;-69
2023/09/22 07:20:00;;;;;;;2.55;1.60;;;;;;;13.07;100.00;99859.75;5023167;28;20025;-69
2023/09/22 07:22:35;;;;;;;3.83;1.95;;;;;;;12.96;100.00;99862.41;5022750;28;20049;-69
2023/09/22 07:25:01;;;;;;;3.00;1.70;;;;;;;12.85;100.00;99870.38;5022716;28;20050;-69
2023/09/22 07:27:27;;;;;;;2.33;1.42;;;;;;;13.08;100.00;99863.28;5022930;28;20021;-68
2023/09/22 07:29:52;;;;;;;2.67;1.70;;;;;;;13.53;100.00;99863.38;5022336;28;20499;-69
2023/09/22 07:32:19;;;;;;;4.22;1.45;;;;;;;13.88;100.00;99882.84;5023646;28;20024;-68
2023/09/22 07:34:45;;;;;;;2.88;1.60;;;;;;;14.34;100.00;99887.16;5002219;28;20060;-68
2023/09/22 07:37:14;;;;;;;2.72;1.60;;;;;;;14.70;100.00;99890.47;5022761;28;20021;-68
2023/09/22 07:39:40;;;;;;;3.10;1.60;;;;;;;14.98;100.00;99888.16;5022892;28;20037;-69
2023/09/22 07:42:07;;;;;;;2.80;1.48;;;;;;;15.41;100.00;99888.03;5022692;28;20029;-69
2023/09/22 07:44:32;;;;;;;2.47;1.52;;;;;;;15.61;100.00;99884.47;5022836;28;20430;-68
2023/09/22 07:47:00;;;;;;;2.88;1.65;;;;;;;15.81;97.28;99881.91;5022412;28;20025;-69
2023/09/22 07:49:26;;;;;;;1.70;1.17;;;;;;;16.22;95.65;99889.00;5009438;28;20152;-67
2023/09/22 07:51:52;;;;;;;1.73;1.25;;;;;;;16.61;91.98;99886.38;5022308;28;20057;-68
2023/09/22 07:54:20;;;;;;;3.28;1.30;;;;;;;16.85;90.85;99888.69;5022858;28;20022;-68
2023/09/22 07:56:46;;;;;;;2.35;1.10;;;;;;;17.23;86.55;99895.88;5022123;28;20029;-69
2023/09/22 07:59:14;;;;;;;2.45;1.20;;;;;;;17.41;84.34;99898.66;5022591;28;20438;-68
2023/09/22 08:01:42;;;;;;;3.88;1.13;;;;;;;17.47;84.59;99903.44;5021873;28;20049;-68
2023/09/22 08:04:08;;;;;;;2.88;1.25;;;;;;;17.50;82.13;99903.16;5022505;28;20037;-68
2023/09/22 08:06:34;;;;;;;4.18;1.40;;;;;;;17.65;82.53;99900.88;5021829;28;20032;-68
2023/09/22 08:09:00;;;;;;;4.03;1.50;;;;;;;17.96;79.65;99903.34;5022683;28;20029;-69
2023/09/22 08:11:25;;;;;;;2.05;1.33;;;;;;;17.95;79.21;99904.34;5022771;28;20076;-68
2023/09/22 08:13:51;;;;;;;3.20;1.20;;;;;;;18.15;77.63;99909.47;5023405;28;20029;-69
2023/09/22 08:16:17;;;;;;;4.25;1.20;;;;;;;18.29;78.89;99918.91;5023233;28;20163;-69
2023/09/22 08:18:43;;;;;;;1.75;0.95;;;;;;;18.46;75.09;99921.78;5022841;28;20246;-70
2023/09/22 08:21:09;;;;;;;3.33;0.93;;;;;;;18.23;74.01;99922.22;5022320;28;20032;-70
2023/09/22 08:23:35;;;;;;;2.65;1.15;;;;;;;18.25;73.63;99928.28;5023270;28;20029;-70
2023/09/22 08:26:08;;;;;;;2.78;1.00;;;;;;;18.37;74.38;99923.53;5026978;28;20044;-69
2023/09/22 08:28:33;;;;;;;1.85;0.90;;;;;;;18.47;74.44;99924.31;5026125;28;20034;-69
2023/09/22 08:30:59;;;;;;;1.33;0.80;;;;;;;18.60;72.60;99921.25;5025469;28;20562;-68
2023/09/22 08:33:24;;;;;;;2.58;1.05;;;;;;;18.80;72.59;99924.72;5025474;28;20430;-70
2023/09/22 08:35:51;;;;;;;2.20;1.05;;;;;;;19.42;70.34;99922.88;5025541;28;20033;-70
2023/09/22 08:38:17;;;;;;;4.45;1.42;;;;;;;20.12;67.03;99930.94;5025126;28;20068;-70
2023/09/22 08:40:46;;;;;;;2.30;1.02;;;;;;;19.56;67.10;99935.84;5025449;28;20480;-70
2023/09/22 08:43:11;;;;;;;3.88;1.20;;;;;;;19.17;66.39;99941.56;5024901;28;20029;-70
2023/09/22 08:45:37;;;;;;;2.80;1.27;;;;;;;18.69;69.01;99944.63;5025652;28;20032;-67
2023/09/22 08:48:03;;;;;;;1.75;1.10;;;;;;;18.33;70.21;99941.84;5024904;28;20021;-69
2023/09/22 08:50:29;;;;;;;3.47;1.10;;;;;;;18.15;69.97;99949.88;5024502;28;20169;-68
2023/09/22 08:52:54;;;;;;;2.67;1.10;;;;;;;17.70;71.17;99940.78;5024960;28;20484;-69
2023/09/22 08:55:21;;;;;;;2.20;0.80;;;;;;;17.09;74.68;99940.16;5006907;28;20022;-71
2023/09/22 08:57:48;;;;;;;2.58;1.02;;;;;;;17.75;72.87;99944.75;5025390;28;20044;-72
2023/09/22 09:00:19;;;;;;;2.75;1.05;;;;;;;17.72;71.11;99947.72;5025006;28;20259;-69
2023/09/22 09:02:50;;;;;;;2.20;0.90;;;;;;;17.03;72.39;99947.94;5025383;28;20040;-69
2023/09/22 09:05:18;;;;;;;1.90;0.90;;;;;;;18.25;71.33;99948.97;5024043;28;20028;-69
2023/09/22 09:07:44;;;;;;;3.03;1.23;;;;;;;19.14;66.88;99944.59;5024750;28;20292;-69
2023/09/22 09:10:10;;;;;;;2.22;1.10;;;;;;;19.56;62.66;99946.63;5024174;28;20030;-69
2023/09/22 09:12:44;;;;;;;1.95;1.00;;;;;;;19.25;64.45;99946.19;5024066;28;20039;-69
2023/09/22 09:15:10;;;;;;;1.00;0.80;;;;;;;19.03;64.43;99946.69;5024579;28;20112;-69
2023/09/22 09:17:35;;;;;;;2.13;1.25;;;;;;;18.25;66.19;99962.44;5024124;28;20532;-70
2023/09/22 09:20:02;;;;;;;2.53;1.33;;;;;;;17.21;68.44;99951.63;5024470;28;20026;-69
2023/09/22 09:22:33;;;;;;;1.77;0.90;;;;;;;16.48;73.95;99964.53;5024576;28;20029;-69
2023/09/22 09:24:59;;;;;;;2.70;1.13;;;;;;;16.04;75.18;99963.09;5024283;28;20053;-69
2023/09/22 09:27:25;;;;;;;2.60;1.00;;;;;;;16.40;76.46;99953.63;5024846;28;20060;-70
2023/09/22 09:29:53;;;;;;;3.28;1.10;;;;;;;17.12;72.19;99958.69;5003984;28;20117;-70
2023/09/22 09:32:26;;;;;;;3.58;1.10;;;;;;;18.20;71.34;99962.06;5006950;28;20022;-70
2023/09/22 09:34:52;;;;;;;2.45;1.20;;;;;;;19.51;66.39;99954.31;5025425;28;20048;-70
2023/09/22 09:37:19;;;;;;;2.40;0.88;;;;;;;21.48;59.72;99955.97;5025238;28;20017;-68
2023/09/22 09:39:52;;;;;;;3.38;1.00;;;;;;;22.13;58.14;99967.56;5006464;28;20561;-70
2023/09/22 09:42:23;;;;;;;1.73;0.80;;;;;;;22.52;56.09;99965.91;5014178;28;20022;-70
2023/09/22 09:44:53;;;;;;;1.88;0.80;;;;;;;23.64;54.55;99953.63;5004232;28;20120;-70
2023/09/22 09:47:21;;;;;;;1.88;1.08;;;;;;;23.21;53.13;99953.31;5023740;28;20067;-70
2023/09/22 09:49:51;;;;;;;2.70;0.98;;;;;;;24.66;50.63;99961.16;4997025;28;20037;-70
2023/09/22 09:52:40;;;;;;;2.13;0.82;;;;;;;26.29;44.38;99963.91;5021804;28;20029;-68
2023/09/22 09:55:12;;;;;;;1.98;0.68;;;;;;;26.87;41.44;99969.03;5024365;28;20029;-69
2023/09/22 09:57:43;;;;;;;1.83;0.93;;;;;;;26.18;43.22;99962.63;5024330;28;20511;-68
2023/09/22 10:00:14;;;;;;;3.63;1.15;;;;;;;23.90;46.01;99961.38;5024115;28;20476;-69
2023/09/22 10:02:43;;;;;;;2.13;1.15;;;;;;;21.95;50.60;99963.38;5023479;28;20034;-69
2023/09/22 10:05:11;;;;;;;2.20;0.98;;;;;;;22.64;51.53;99961.78;5024017;28;20072;-69
2023/09/22 10:07:38;;;;;;;1.80;0.93;;;;;;;23.10;47.63;99960.00;5024340;28;20087;-70
2023/09/22 10:10:06;;;;;;;2.33;0.90;;;;;;;22.99;46.71;99960.44;5024099;28;20496;-70
2023/09/22 10:12:31;;;;;;;1.85;0.85;;;;;;;23.84;47.02;99952.09;5023790;28;20026;-69
2023/09/22 10:15:01;;;;;;;1.85;1.02;;;;;;;24.34;44.96;99955.09;5024242;28;20029;-70
2023/09/22 10:17:28;;;;;;;2.10;1.20;;;;;;;23.96;46.55;99955.19;5023646;28;20277;-69
2023/09/22 10:19:53;;;;;;;1.80;0.93;;;;;;;23.52;45.44;99955.91;5024516;28;20053;-70
2023/09/22 10:22:19;;;;;;;2.38;1.02;;;;;;;22.31;50.04;99961.91;5023647;28;20057;-70
2023/09/22 10:24:44;;;;;;;2.38;1.17;;;;;;;22.10;50.82;99962.47;5023756;28;20531;-72
2023/09/22 10:27:14;;;;;;;2.38;1.17;;;;;;;23.06;48.10;99958.66;5024009;28;20057;-74
2023/09/22 10:29:54;;;;;;;3.95;1.42;;;;;;;24.78;44.38;99940.59;5024100;28;20114;-71
2023/09/22 10:32:21;;;;;;;1.63;0.90;;;;;;;27.16;41.19;99948.75;5023671;28;20052;-70
2023/09/22 10:35:09;;;;;;;2.33;1.20;;;;;;;27.93;39.58;99947.34;5024240;28;20021;-71
2023/09/22 10:37:36;;;;;;;3.83;1.15;;;;;;;28.60;35.88;99953.50;5023994;28;20040;-71
2023/09/22 10:40:12;;;;;;;1.95;0.98;;;;;;;28.84;36.15;99966.41;5023481;28;20017;-71
2023/09/22 10:42:46;;;;;;;1.67;0.70;;;;;;;27.05;38.19;99966.59;5024336;28;20480;-71
2023/09/22 10:45:17;;;;;;;2.75;1.05;;;;;;;27.33;37.61;99962.88;5023549;28;20021;-70
2023/09/22 10:47:46;;;;;;;1.98;0.80;;;;;;;26.79;36.79;99964.59;5023366;28;20391;-70
2023/09/22 10:50:30;;;;;;;2.15;0.93;;;;;;;27.53;38.17;99961.81;5023501;28;20079;-69
2023/09/22 10:53:05;;;;;;;3.42;1.08;;;;;;;27.72;35.55;99949.22;5013274;28;20041;-70
2023/09/22 10:55:36;;;;;;;2.10;0.85;;;;;;;26.94;36.19;99962.56;5023027;28;20022;-71
2023/09/22 10:58:12;;;;;;;2.38;1.00;;;;;;;24.43;40.71;99966.75;5023737;28;20033;-72
2023/09/22 11:00:40;;;;;;;1.20;0.70;;;;;;;23.02;43.70;99970.06;5022769;28;20143;-70
2023/09/22 11:03:13;;;;;;;2.13;0.90;;;;;;;24.33;43.72;99957.00;5008492;28;20033;-70
2023/09/22 11:05:39;;;;;;;1.50;0.88;;;;;;;25.75;39.60;99959.13;4981639;28;20022;-70
2023/09/22 11:08:15;;;;;;;3.17;1.00;;;;;;;24.92;42.21;99966.94;5003323;28;20488;-70
2023/09/22 11:10:51;;;;;;;1.85;1.02;;;;;;;24.39;42.24;99966.28;5022791;28;20021;-70
2023/09/22 11:13:18;;;;;;;1.80;1.00;;;;;;;23.00;44.66;99972.97;5022944;28;20051;-71
2023/09/22 11:15:48;;;;;;;1.65;1.00;;;;;;;21.50;47.16;99972.91;5021929;28;20056;-71
2023/09/22 11:18:31;;;;;;;2.08;1.10;;;;;;;21.07;49.64;99974.88;5023291;28;20089;-71
2023/09/22 11:21:02;;;;;;;;;;;;;;;22.29;46.50;99982.94;5023252;28;20344;-71
2023/09/22 11:23:28;;;;;;;1.17;0.73;;;;;;;20.66;49.31;99977.47;5022790;28;20012;-70